Cromwell, Connecticut
Current Conditions -  °F | °C
As of 8:53 PM on Wednesday 17 Dec 2014 (Local Time) from KHFD Reporting Station
Overcast Overcast  
Wind Chill: 38°   Ceiling: 9500
Heat Index: 42°   Visibility: 10mi
Dew Point: 33°   Wind: 7mph
Humidity: 70%   Direction: NA
Pressure: 29.83"   Gusts: NA
Location:  41.59°N, 72.65°W
Report Text: KHFD 180153Z VRB06KT 10SM FEW060 SCT075 OVC095 06/01 A2983 RMK AO2 RAE22 SLP100 P0000 T00560006
Loading
Personal Weather Stations






























Interactive Weather Map New forecast layout! Learn more

10-Day Weather Forecast

Advertisements
Track Severe Weather on mobile